sensor_id;sensor_type;location;lat;lon;timestamp;temperature;humidity
24844;DHT22;12921;51.392;12.240;2022-09-01T00:02:14;14.40;99.90
24844;DHT22;12921;51.392;12.240;2022-09-01T00:04:42;14.40;99.90
24844;DHT22;12921;51.392;12.240;2022-09-01T00:07:10;14.40;99.90
24844;DHT22;12921;51.392;12.240;2022-09-01T00:09:37;14.50;99.90
24844;DHT22;12921;51.392;12.240;2022-09-01T00:12:04;14.50;99.90
24844;DHT22;12921;51.392;12.240;2022-09-01T00:14:33;14.60;99.90
24844;DHT22;12921;51.392;12.240;2022-09-01T00:17:00;14.70;99.90
24844;DHT22;12921;51.392;12.240;2022-09-01T00:19:26;14.70;99.90
24844;DHT22;12921;51.392;12.240;2022-09-01T00:21:54;14.60;99.90
24844;DHT22;12921;51.392;12.240;2022-09-01T00:24:20;14.60;99.90
24844;DHT22;12921;51.392;12.240;2022-09-01T00:26:47;14.60;99.90
24844;DHT22;12921;51.392;12.240;2022-09-01T00:29:13;14.50;99.90
24844;DHT22;12921;51.392;12.240;2022-09-01T00:31:40;14.50;99.90
24844;DHT22;12921;51.392;12.240;2022-09-01T00:34:05;14.50;99.90
24844;DHT22;12921;51.392;12.240;2022-09-01T00:36:31;14.40;99.90
24844;DHT22;12921;51.392;12.240;2022-09-01T00:38:57;14.40;99.90
24844;DHT22;12921;51.392;12.240;2022-09-01T00:41:25;14.30;99.90
24844;DHT22;12921;51.392;12.240;2022-09-01T00:43:57;14.30;99.90
24844;DHT22;12921;51.392;12.240;2022-09-01T00:46:32;14.20;99.90
24844;DHT22;12921;51.392;12.240;2022-09-01T00:51:30;14.10;99.90
24844;DHT22;12921;51.392;12.240;2022-09-01T00:54:00;14.10;99.90
24844;DHT22;12921;51.392;12.240;2022-09-01T00:56:26;14.00;99.90
24844;DHT22;12921;51.392;12.240;2022-09-01T00:58:53;13.90;99.90
24844;DHT22;12921;51.392;12.240;2022-09-01T01:01:19;13.80;99.90
24844;DHT22;12921;51.392;12.240;2022-09-01T01:03:46;13.80;99.90
24844;DHT22;12921;51.392;12.240;2022-09-01T01:06:14;13.70;99.90
24844;DHT22;12921;51.392;12.240;2022-09-01T01:08:44;13.70;99.90
24844;DHT22;12921;51.392;12.240;2022-09-01T01:11:24;13.70;99.90
24844;DHT22;12921;51.392;12.240;2022-09-01T01:14:03;13.60;99.90
24844;DHT22;12921;51.392;12.240;2022-09-01T01:16:35;13.60;99.90
24844;DHT22;12921;51.392;12.240;2022-09-01T01:19:01;13.50;99.90
24844;DHT22;12921;51.392;12.240;2022-09-01T01:21:41;13.50;99.90
24844;DHT22;12921;51.392;12.240;2022-09-01T01:24:29;13.50;99.90
24844;DHT22;12921;51.392;12.240;2022-09-01T01:26:56;13.50;99.90
24844;DHT22;12921;51.392;12.240;2022-09-01T01:29:26;13.40;99.90
24844;DHT22;12921;51.392;12.240;2022-09-01T01:31:54;13.30;99.90
24844;DHT22;12921;51.392;12.240;2022-09-01T01:34:20;13.20;99.90
24844;DHT22;12921;51.392;12.240;2022-09-01T01:36:48;13.10;99.90
24844;DHT22;12921;51.392;12.240;2022-09-01T01:39:17;13.00;99.90
24844;DHT22;12921;51.392;12.240;2022-09-01T01:41:44;13.00;99.90
24844;DHT22;12921;51.392;12.240;2022-09-01T01:44:15;12.90;99.90
24844;DHT22;12921;51.392;12.240;2022-09-01T01:46:44;12.90;99.90
24844;DHT22;12921;51.392;12.240;2022-09-01T01:49:11;12.80;99.90
24844;DHT22;12921;51.392;12.240;2022-09-01T01:51:39;12.80;99.90
24844;DHT22;12921;51.392;12.240;2022-09-01T01:54:05;12.80;99.90
24844;DHT22;12921;51.392;12.240;2022-09-01T01:56:33;12.70;99.90
24844;DHT22;12921;51.392;12.240;2022-09-01T01:59:02;12.80;99.90
24844;DHT22;12921;51.392;12.240;2022-09-01T02:01:29;12.80;99.90
24844;DHT22;12921;51.392;12.240;2022-09-01T02:03:57;12.80;99.90
24844;DHT22;12921;51.392;12.240;2022-09-01T02:06:24;12.80;99.90
24844;DHT22;12921;51.392;12.240;2022-09-01T02:08:52;12.80;99.90
24844;DHT22;12921;51.392;12.240;2022-09-01T02:11:25;12.80;99.90
24844;DHT22;12921;51.392;12.240;2022-09-01T02:13:52;12.70;99.90
24844;DHT22;12921;51.392;12.240;2022-09-01T02:16:22;12.70;99.90
24844;DHT22;12921;51.392;12.240;2022-09-01T02:18:49;12.70;99.90
24844;DHT22;12921;51.392;12.240;2022-09-01T02:21:17;12.70;99.90
24844;DHT22;12921;51.392;12.240;2022-09-01T02:23:48;12.70;99.90
24844;DHT22;12921;51.392;12.240;2022-09-01T02:26:14;12.70;99.90
24844;DHT22;12921;51.392;12.240;2022-09-01T02:28:41;12.70;99.90
24844;DHT22;12921;51.392;12.240;2022-09-01T02:31:08;12.70;99.90
24844;DHT22;12921;51.392;12.240;2022-09-01T02:33:36;12.70;99.90
24844;DHT22;12921;51.392;12.240;2022-09-01T02:36:06;12.60;99.90
24844;DHT22;12921;51.392;12.240;2022-09-01T02:38:33;12.60;99.90
24844;DHT22;12921;51.392;12.240;2022-09-01T02:41:00;12.60;99.90
24844;DHT22;12921;51.392;12.240;2022-09-01T02:43:27;12.60;99.90
24844;DHT22;12921;51.392;12.240;2022-09-01T02:45:55;12.60;99.90
24844;DHT22;12921;51.392;12.240;2022-09-01T02:48:38;12.60;99.90
24844;DHT22;12921;51.392;12.240;2022-09-01T02:51:06;12.60;99.90
24844;DHT22;12921;51.392;12.240;2022-09-01T02:53:33;12.60;99.90
24844;DHT22;12921;51.392;12.240;2022-09-01T02:56:01;12.60;99.90
24844;DHT22;12921;51.392;12.240;2022-09-01T02:58:29;12.60;99.90
24844;DHT22;12921;51.392;12.240;2022-09-01T03:00:57;12.50;99.90
24844;DHT22;12921;51.392;12.240;2022-09-01T03:03:24;12.50;99.90
24844;DHT22;12921;51.392;12.240;2022-09-01T03:05:51;12.40;99.90
24844;DHT22;12921;51.392;12.240;2022-09-01T03:08:23;12.40;99.90
24844;DHT22;12921;51.392;12.240;2022-09-01T03:10:50;12.30;99.90
24844;DHT22;12921;51.392;12.240;2022-09-01T03:13:19;12.30;99.90
24844;DHT22;12921;51.392;12.240;2022-09-01T03:15:46;12.20;99.90
24844;DHT22;12921;51.392;12.240;2022-09-01T03:18:13;12.20;99.90
24844;DHT22;12921;51.392;12.240;2022-09-01T03:20:41;12.10;99.90
24844;DHT22;12921;51.392;12.240;2022-09-01T03:23:10;12.10;99.90
24844;DHT22;12921;51.392;12.240;2022-09-01T03:25:40;12.00;99.90
24844;DHT22;12921;51.392;12.240;2022-09-01T03:28:06;12.00;99.90
24844;DHT22;12921;51.392;12.240;2022-09-01T03:30:34;12.00;99.90
24844;DHT22;12921;51.392;12.240;2022-09-01T03:33:01;11.90;99.90
24844;DHT22;12921;51.392;12.240;2022-09-01T03:35:28;11.90;99.90
24844;DHT22;12921;51.392;12.240;2022-09-01T03:37:57;11.80;99.90
24844;DHT22;12921;51.392;12.240;2022-09-01T03:40:28;11.80;99.90
24844;DHT22;12921;51.392;12.240;2022-09-01T03:43:01;11.80;99.90
24844;DHT22;12921;51.392;12.240;2022-09-01T03:45:27;11.70;99.90
24844;DHT22;12921;51.392;12.240;2022-09-01T03:47:54;11.70;99.90
24844;DHT22;12921;51.392;12.240;2022-09-01T03:50:22;11.70;99.90
24844;DHT22;12921;51.392;12.240;2022-09-01T03:52:50;11.70;99.90
24844;DHT22;12921;51.392;12.240;2022-09-01T03:55:19;11.60;99.90
24844;DHT22;12921;51.392;12.240;2022-09-01T03:57:52;11.60;99.90
24844;DHT22;12921;51.392;12.240;2022-09-01T04:00:20;11.50;99.90
24844;DHT22;12921;51.392;12.240;2022-09-01T04:02:49;11.50;99.90
24844;DHT22;12921;51.392;12.240;2022-09-01T04:05:16;11.50;99.90
24844;DHT22;12921;51.392;12.240;2022-09-01T04:07:43;11.50;99.90
24844;DHT22;12921;51.392;12.240;2022-09-01T04:10:10;11.50;99.90
24844;DHT22;12921;51.392;12.240;2022-09-01T04:12:37;11.50;99.90
24844;DHT22;12921;51.392;12.240;2022-09-01T04:15:04;11.50;99.90
24844;DHT22;12921;51.392;12.240;2022-09-01T04:17:30;11.50;99.90
24844;DHT22;12921;51.392;12.240;2022-09-01T04:20:14;11.40;99.90
24844;DHT22;12921;51.392;12.240;2022-09-01T04:22:45;11.40;99.90
24844;DHT22;12921;51.392;12.240;2022-09-01T04:25:12;11.40;99.90
24844;DHT22;12921;51.392;12.240;2022-09-01T04:27:38;11.40;99.90
24844;DHT22;12921;51.392;12.240;2022-09-01T04:30:14;11.30;99.90
24844;DHT22;12921;51.392;12.240;2022-09-01T04:32:40;11.30;99.90
24844;DHT22;12921;51.392;12.240;2022-09-01T04:35:07;11.30;99.90
24844;DHT22;12921;51.392;12.240;2022-09-01T04:37:33;11.30;99.90
24844;DHT22;12921;51.392;12.240;2022-09-01T04:40:02;11.20;99.90
24844;DHT22;12921;51.392;12.240;2022-09-01T04:42:29;11.20;99.90
24844;DHT22;12921;51.392;12.240;2022-09-01T04:44:57;11.20;99.90
24844;DHT22;12921;51.392;12.240;2022-09-01T04:47:24;11.20;99.90
24844;DHT22;12921;51.392;12.240;2022-09-01T04:49:58;11.20;99.90
24844;DHT22;12921;51.392;12.240;2022-09-01T04:52:25;11.30;99.90
24844;DHT22;12921;51.392;12.240;2022-09-01T04:54:50;11.30;99.90
24844;DHT22;12921;51.392;12.240;2022-09-01T04:57:16;11.30;99.90
24844;DHT22;12921;51.392;12.240;2022-09-01T04:59:42;11.20;99.90
24844;DHT22;12921;51.392;12.240;2022-09-01T05:02:09;11.20;99.90
24844;DHT22;12921;51.392;12.240;2022-09-01T05:04:35;11.20;99.90
24844;DHT22;12921;51.392;12.240;2022-09-01T05:07:02;11.10;99.90
24844;DHT22;12921;51.392;12.240;2022-09-01T05:09:33;11.10;99.90
24844;DHT22;12921;51.392;12.240;2022-09-01T05:12:00;11.00;99.90
24844;DHT22;12921;51.392;12.240;2022-09-01T05:14:37;11.10;99.90
24844;DHT22;12921;51.392;12.240;2022-09-01T05:17:07;11.10;99.90
24844;DHT22;12921;51.392;12.240;2022-09-01T05:19:35;11.10;99.90
24844;DHT22;12921;51.392;12.240;2022-09-01T05:22:01;11.20;99.90
24844;DHT22;12921;51.392;12.240;2022-09-01T05:24:29;11.30;99.90
24844;DHT22;12921;51.392;12.240;2022-09-01T05:26:57;11.40;99.90
24844;DHT22;12921;51.392;12.240;2022-09-01T05:29:25;11.60;99.90
24844;DHT22;12921;51.392;12.240;2022-09-01T05:31:52;12.10;99.90
24844;DHT22;12921;51.392;12.240;2022-09-01T05:34:20;12.50;99.90
24844;DHT22;12921;51.392;12.240;2022-09-01T05:36:52;12.90;99.90
24844;DHT22;12921;51.392;12.240;2022-09-01T05:39:18;13.40;99.90
24844;DHT22;12921;51.392;12.240;2022-09-01T05:41:44;13.70;99.90
24844;DHT22;12921;51.392;12.240;2022-09-01T05:44:10;14.10;99.90
24844;DHT22;12921;51.392;12.240;2022-09-01T05:46:37;14.40;99.90
24844;DHT22;12921;51.392;12.240;2022-09-01T05:49:04;14.80;99.90
24844;DHT22;12921;51.392;12.240;2022-09-01T05:51:31;15.00;99.90
24844;DHT22;12921;51.392;12.240;2022-09-01T05:53:59;15.00;99.90
24844;DHT22;12921;51.392;12.240;2022-09-01T05:56:26;14.80;99.90
24844;DHT22;12921;51.392;12.240;2022-09-01T05:58:53;14.70;99.90
24844;DHT22;12921;51.392;12.240;2022-09-01T06:01:25;14.50;99.90
24844;DHT22;12921;51.392;12.240;2022-09-01T06:03:53;14.30;99.90
24844;DHT22;12921;51.392;12.240;2022-09-01T06:06:21;14.20;99.90
24844;DHT22;12921;51.392;12.240;2022-09-01T06:08:49;14.20;99.90
24844;DHT22;12921;51.392;12.240;2022-09-01T06:11:16;14.30;99.90
24844;DHT22;12921;51.392;12.240;2022-09-01T06:13:43;14.30;99.90
24844;DHT22;12921;51.392;12.240;2022-09-01T06:16:15;14.30;99.90
24844;DHT22;12921;51.392;12.240;2022-09-01T06:18:42;14.40;99.90
24844;DHT22;12921;51.392;12.240;2022-09-01T06:21:09;14.50;99.90
24844;DHT22;12921;51.392;12.240;2022-09-01T06:23:40;14.50;99.90
24844;DHT22;12921;51.392;12.240;2022-09-01T06:26:15;14.50;99.90
24844;DHT22;12921;51.392;12.240;2022-09-01T06:28:42;14.50;99.90
24844;DHT22;12921;51.392;12.240;2022-09-01T06:31:08;14.50;99.90
24844;DHT22;12921;51.392;12.240;2022-09-01T06:33:34;14.50;99.90
24844;DHT22;12921;51.392;12.240;2022-09-01T06:36:01;14.40;99.90
24844;DHT22;12921;51.392;12.240;2022-09-01T06:38:28;14.40;99.90
24844;DHT22;12921;51.392;12.240;2022-09-01T06:41:02;14.40;99.90
24844;DHT22;12921;51.392;12.240;2022-09-01T06:43:29;14.40;99.90
24844;DHT22;12921;51.392;12.240;2022-09-01T06:45:55;14.50;99.90
24844;DHT22;12921;51.392;12.240;2022-09-01T06:48:21;14.50;99.90
24844;DHT22;12921;51.392;12.240;2022-09-01T06:50:48;14.50;99.90
24844;DHT22;12921;51.392;12.240;2022-09-01T06:53:14;14.60;99.90
24844;DHT22;12921;51.392;12.240;2022-09-01T06:55:47;14.70;99.90
24844;DHT22;12921;51.392;12.240;2022-09-01T06:58:14;14.80;99.90
24844;DHT22;12921;51.392;12.240;2022-09-01T07:00:43;14.80;99.90
24844;DHT22;12921;51.392;12.240;2022-09-01T07:03:11;14.80;99.90
24844;DHT22;12921;51.392;12.240;2022-09-01T07:05:42;14.90;99.90
24844;DHT22;12921;51.392;12.240;2022-09-01T07:08:12;14.90;99.90
24844;DHT22;12921;51.392;12.240;2022-09-01T07:10:45;14.90;99.90
24844;DHT22;12921;51.392;12.240;2022-09-01T07:13:12;15.00;99.90
24844;DHT22;12921;51.392;12.240;2022-09-01T07:15:43;15.10;99.90
24844;DHT22;12921;51.392;12.240;2022-09-01T07:18:09;15.10;99.90
24844;DHT22;12921;51.392;12.240;2022-09-01T07:20:40;15.20;99.90
24844;DHT22;12921;51.392;12.240;2022-09-01T07:23:06;15.30;99.90
24844;DHT22;12921;51.392;12.240;2022-09-01T07:25:33;15.40;99.90
24844;DHT22;12921;51.392;12.240;2022-09-01T07:28:02;15.50;99.90
24844;DHT22;12921;51.392;12.240;2022-09-01T07:30:27;15.70;99.90
24844;DHT22;12921;51.392;12.240;2022-09-01T07:32:56;15.80;99.90
24844;DHT22;12921;51.392;12.240;2022-09-01T07:35:22;16.10;99.90
24844;DHT22;12921;51.392;12.240;2022-09-01T07:37:48;16.40;99.90
24844;DHT22;12921;51.392;12.240;2022-09-01T07:40:16;16.50;99.90
24844;DHT22;12921;51.392;12.240;2022-09-01T07:42:44;16.60;99.90
24844;DHT22;12921;51.392;12.240;2022-09-01T07:45:13;16.70;99.90
24844;DHT22;12921;51.392;12.240;2022-09-01T07:47:40;16.90;99.90
24844;DHT22;12921;51.392;12.240;2022-09-01T07:50:08;17.20;99.90
24844;DHT22;12921;51.392;12.240;2022-09-01T07:52:35;17.30;99.90
24844;DHT22;12921;51.392;12.240;2022-09-01T07:55:11;17.50;99.90
24844;DHT22;12921;51.392;12.240;2022-09-01T07:57:39;17.70;99.90
24844;DHT22;12921;51.392;12.240;2022-09-01T08:00:11;18.00;99.90
24844;DHT22;12921;51.392;12.240;2022-09-01T08:02:37;18.30;99.90
24844;DHT22;12921;51.392;12.240;2022-09-01T08:05:08;18.50;99.90
24844;DHT22;12921;51.392;12.240;2022-09-01T08:07:35;18.70;99.90
24844;DHT22;12921;51.392;12.240;2022-09-01T08:10:02;18.90;99.90
24844;DHT22;12921;51.392;12.240;2022-09-01T08:12:28;18.80;99.90
24844;DHT22;12921;51.392;12.240;2022-09-01T08:14:54;18.80;99.90
24844;DHT22;12921;51.392;12.240;2022-09-01T08:17:19;18.80;99.90
24844;DHT22;12921;51.392;12.240;2022-09-01T08:19:45;18.70;99.90
24844;DHT22;12921;51.392;12.240;2022-09-01T08:22:12;18.70;99.90
24844;DHT22;12921;51.392;12.240;2022-09-01T08:24:38;18.70;99.90
24844;DHT22;12921;51.392;12.240;2022-09-01T08:27:04;18.70;99.90
24844;DHT22;12921;51.392;12.240;2022-09-01T08:29:30;18.90;99.90
24844;DHT22;12921;51.392;12.240;2022-09-01T08:31:56;19.10;99.90
24844;DHT22;12921;51.392;12.240;2022-09-01T08:34:24;19.40;99.90
24844;DHT22;12921;51.392;12.240;2022-09-01T08:36:50;19.50;99.90
24844;DHT22;12921;51.392;12.240;2022-09-01T08:39:15;19.70;99.90
24844;DHT22;12921;51.392;12.240;2022-09-01T08:41:49;19.90;99.90
24844;DHT22;12921;51.392;12.240;2022-09-01T08:47:13;20.20;99.90
24844;DHT22;12921;51.392;12.240;2022-09-01T08:49:41;20.20;99.90
24844;DHT22;12921;51.392;12.240;2022-09-01T08:52:44;20.20;99.90
24844;DHT22;12921;51.392;12.240;2022-09-01T08:55:25;20.20;99.90
24844;DHT22;12921;51.392;12.240;2022-09-01T08:57:54;20.40;99.90
24844;DHT22;12921;51.392;12.240;2022-09-01T09:00:25;20.70;99.90
24844;DHT22;12921;51.392;12.240;2022-09-01T09:08:43;21.40;99.90
24844;DHT22;12921;51.392;12.240;2022-09-01T09:16:48;21.80;99.90
24844;DHT22;12921;51.392;12.240;2022-09-01T09:19:35;21.70;99.90
24844;DHT22;12921;51.392;12.240;2022-09-01T09:22:05;21.30;99.90
24844;DHT22;12921;51.392;12.240;2022-09-01T09:24:58;21.10;99.90
24844;DHT22;12921;51.392;12.240;2022-09-01T09:27:37;21.20;99.90
24844;DHT22;12921;51.392;12.240;2022-09-01T09:30:20;21.40;99.90
24844;DHT22;12921;51.392;12.240;2022-09-01T09:33:00;21.40;99.90
24844;DHT22;12921;51.392;12.240;2022-09-01T09:35:38;21.60;99.90
24844;DHT22;12921;51.392;12.240;2022-09-01T09:41:04;21.70;99.90
24844;DHT22;12921;51.392;12.240;2022-09-01T09:43:41;21.70;99.90
24844;DHT22;12921;51.392;12.240;2022-09-01T09:48:46;21.80;99.90
24844;DHT22;12921;51.392;12.240;2022-09-01T09:51:19;21.90;99.90
24844;DHT22;12921;51.392;12.240;2022-09-01T09:53:45;22.00;99.90
24844;DHT22;12921;51.392;12.240;2022-09-01T09:58:41;21.90;99.90
24844;DHT22;12921;51.392;12.240;2022-09-01T10:03:53;21.90;99.90
24844;DHT22;12921;51.392;12.240;2022-09-01T10:06:35;21.80;99.90
24844;DHT22;12921;51.392;12.240;2022-09-01T10:09:05;22.10;99.90
24844;DHT22;12921;51.392;12.240;2022-09-01T10:11:43;22.20;99.90
24844;DHT22;12921;51.392;12.240;2022-09-01T10:14:18;22.20;99.90
24844;DHT22;12921;51.392;12.240;2022-09-01T10:16:44;22.10;99.90
24844;DHT22;12921;51.392;12.240;2022-09-01T10:19:13;21.80;99.90
24844;DHT22;12921;51.392;12.240;2022-09-01T10:21:42;21.90;99.90
24844;DHT22;12921;51.392;12.240;2022-09-01T10:24:26;22.10;99.90
24844;DHT22;12921;51.392;12.240;2022-09-01T10:26:56;22.10;99.90
24844;DHT22;12921;51.392;12.240;2022-09-01T10:29:27;22.20;99.90
24844;DHT22;12921;51.392;12.240;2022-09-01T10:31:56;22.20;99.90
24844;DHT22;12921;51.392;12.240;2022-09-01T10:34:23;22.20;99.90
24844;DHT22;12921;51.392;12.240;2022-09-01T10:36:49;22.30;99.90
24844;DHT22;12921;51.392;12.240;2022-09-01T10:39:17;22.60;99.90
24844;DHT22;12921;51.392;12.240;2022-09-01T10:41:50;22.60;99.90
24844;DHT22;12921;51.392;12.240;2022-09-01T10:46:44;22.80;99.90
24844;DHT22;12921;51.392;12.240;2022-09-01T10:51:54;23.10;99.90
24844;DHT22;12921;51.392;12.240;2022-09-01T10:57:29;23.20;99.90
24844;DHT22;12921;51.392;12.240;2022-09-01T11:06:06;23.80;99.90
24844;DHT22;12921;51.392;12.240;2022-09-01T11:18:52;22.80;99.90
24844;DHT22;12921;51.392;12.240;2022-09-01T11:21:28;22.50;99.90
24844;DHT22;12921;51.392;12.240;2022-09-01T11:26:58;22.10;99.90
24844;DHT22;12921;51.392;12.240;2022-09-01T11:29:53;22.10;99.90
24844;DHT22;12921;51.392;12.240;2022-09-01T11:32:23;22.00;99.90
24844;DHT22;12921;51.392;12.240;2022-09-01T11:34:50;22.20;99.90
24844;DHT22;12921;51.392;12.240;2022-09-01T11:37:20;22.50;99.90
24844;DHT22;12921;51.392;12.240;2022-09-01T11:39:59;22.60;99.90
24844;DHT22;12921;51.392;12.240;2022-09-01T11:42:30;22.60;99.90
24844;DHT22;12921;51.392;12.240;2022-09-01T11:45:20;22.70;99.90
24844;DHT22;12921;51.392;12.240;2022-09-01T11:48:01;23.00;99.90
24844;DHT22;12921;51.392;12.240;2022-09-01T11:50:35;23.20;99.90
24844;DHT22;12921;51.392;12.240;2022-09-01T11:53:02;23.70;99.90
24844;DHT22;12921;51.392;12.240;2022-09-01T11:57:57;23.60;99.90
24844;DHT22;12921;51.392;12.240;2022-09-01T12:00:35;23.50;99.90
24844;DHT22;12921;51.392;12.240;2022-09-01T12:03:36;23.70;99.90
24844;DHT22;12921;51.392;12.240;2022-09-01T12:05:58;23.50;99.90
24844;DHT22;12921;51.392;12.240;2022-09-01T12:08:28;23.40;99.90
24844;DHT22;12921;51.392;12.240;2022-09-01T12:11:19;22.80;99.90
24844;DHT22;12921;51.392;12.240;2022-09-01T12:16:31;22.70;99.90
24844;DHT22;12921;51.392;12.240;2022-09-01T12:18:59;22.70;99.90
24844;DHT22;12921;51.392;12.240;2022-09-01T12:21:34;22.60;99.90
24844;DHT22;12921;51.392;12.240;2022-09-01T12:24:20;22.40;99.90
24844;DHT22;12921;51.392;12.240;2022-09-01T12:26:48;22.30;99.90
24844;DHT22;12921;51.392;12.240;2022-09-01T12:29:15;22.20;99.90
24844;DHT22;12921;51.392;12.240;2022-09-01T12:31:43;22.30;99.90
24844;DHT22;12921;51.392;12.240;2022-09-01T12:37:04;22.50;99.90
24844;DHT22;12921;51.392;12.240;2022-09-01T12:39:41;22.60;99.90
24844;DHT22;12921;51.392;12.240;2022-09-01T12:44:52;22.60;99.90
24844;DHT22;12921;51.392;12.240;2022-09-01T12:50:01;23.00;99.90
24844;DHT22;12921;51.392;12.240;2022-09-01T12:52:28;23.60;99.90
24844;DHT22;12921;51.392;12.240;2022-09-01T12:55:09;24.00;99.90
24844;DHT22;12921;51.392;12.240;2022-09-01T12:57:45;24.30;99.90
24844;DHT22;12921;51.392;12.240;2022-09-01T13:00:16;24.40;99.90
24844;DHT22;12921;51.392;12.240;2022-09-01T13:02:47;24.00;99.90
24844;DHT22;12921;51.392;12.240;2022-09-01T13:07:46;23.10;99.90
24844;DHT22;12921;51.392;12.240;2022-09-01T13:10:12;22.90;99.90
24844;DHT22;12921;51.392;12.240;2022-09-01T13:12:43;22.70;99.90
24844;DHT22;12921;51.392;12.240;2022-09-01T13:15:10;22.50;99.90
24844;DHT22;12921;51.392;12.240;2022-09-01T13:17:35;22.40;99.90
24844;DHT22;12921;51.392;12.240;2022-09-01T13:20:04;22.30;99.90
24844;DHT22;12921;51.392;12.240;2022-09-01T13:22:30;22.30;99.90
24844;DHT22;12921;51.392;12.240;2022-09-01T13:24:56;22.30;99.90
24844;DHT22;12921;51.392;12.240;2022-09-01T13:27:21;22.20;99.90
24844;DHT22;12921;51.392;12.240;2022-09-01T13:29:48;22.20;99.90
24844;DHT22;12921;51.392;12.240;2022-09-01T13:32:14;22.20;99.90
24844;DHT22;12921;51.392;12.240;2022-09-01T13:34:39;22.20;99.90
24844;DHT22;12921;51.392;12.240;2022-09-01T13:37:05;22.20;99.90
24844;DHT22;12921;51.392;12.240;2022-09-01T13:39:31;22.20;99.90
24844;DHT22;12921;51.392;12.240;2022-09-01T13:41:57;22.10;99.90
24844;DHT22;12921;51.392;12.240;2022-09-01T13:44:23;21.90;99.90
24844;DHT22;12921;51.392;12.240;2022-09-01T13:46:48;21.90;99.90
24844;DHT22;12921;51.392;12.240;2022-09-01T13:49:14;21.90;99.90
24844;DHT22;12921;51.392;12.240;2022-09-01T13:51:39;21.80;99.90
24844;DHT22;12921;51.392;12.240;2022-09-01T13:54:05;21.80;99.90
24844;DHT22;12921;51.392;12.240;2022-09-01T13:56:31;21.90;99.90
24844;DHT22;12921;51.392;12.240;2022-09-01T13:58:56;22.30;99.90
24844;DHT22;12921;51.392;12.240;2022-09-01T14:01:22;22.50;99.90
24844;DHT22;12921;51.392;12.240;2022-09-01T14:03:48;22.70;99.90
24844;DHT22;12921;51.392;12.240;2022-09-01T14:06:15;23.00;99.90
24844;DHT22;12921;51.392;12.240;2022-09-01T14:08:40;23.10;99.90
24844;DHT22;12921;51.392;12.240;2022-09-01T14:11:06;23.10;99.90
24844;DHT22;12921;51.392;12.240;2022-09-01T14:13:32;23.00;99.90
24844;DHT22;12921;51.392;12.240;2022-09-01T14:15:59;23.10;99.90
24844;DHT22;12921;51.392;12.240;2022-09-01T14:18:24;22.90;99.90
24844;DHT22;12921;51.392;12.240;2022-09-01T14:21:01;22.70;99.90
24844;DHT22;12921;51.392;12.240;2022-09-01T14:23:27;22.50;99.90
24844;DHT22;12921;51.392;12.240;2022-09-01T14:25:53;22.30;99.90
24844;DHT22;12921;51.392;12.240;2022-09-01T14:28:20;22.30;99.90
24844;DHT22;12921;51.392;12.240;2022-09-01T14:30:47;22.20;99.90
24844;DHT22;12921;51.392;12.240;2022-09-01T14:33:14;22.10;99.90
24844;DHT22;12921;51.392;12.240;2022-09-01T14:35:43;22.00;99.90
24844;DHT22;12921;51.392;12.240;2022-09-01T14:38:10;21.90;99.90
24844;DHT22;12921;51.392;12.240;2022-09-01T14:40:37;22.00;99.90
24844;DHT22;12921;51.392;12.240;2022-09-01T14:43:05;21.90;99.90
24844;DHT22;12921;51.392;12.240;2022-09-01T14:45:31;21.90;99.90
24844;DHT22;12921;51.392;12.240;2022-09-01T14:47:58;21.90;99.90
24844;DHT22;12921;51.392;12.240;2022-09-01T14:50:26;22.10;99.90
24844;DHT22;12921;51.392;12.240;2022-09-01T14:52:54;22.30;99.90
24844;DHT22;12921;51.392;12.240;2022-09-01T14:55:22;22.40;99.90
24844;DHT22;12921;51.392;12.240;2022-09-01T14:57:48;22.50;99.40
24844;DHT22;12921;51.392;12.240;2022-09-01T15:00:14;22.50;99.30
24844;DHT22;12921;51.392;12.240;2022-09-01T15:02:42;22.50;98.90
24844;DHT22;12921;51.392;12.240;2022-09-01T15:05:08;22.50;97.60
24844;DHT22;12921;51.392;12.240;2022-09-01T15:07:34;22.60;98.50
24844;DHT22;12921;51.392;12.240;2022-09-01T15:10:01;22.70;97.80
24844;DHT22;12921;51.392;12.240;2022-09-01T15:12:26;22.70;97.80
24844;DHT22;12921;51.392;12.240;2022-09-01T15:14:57;22.70;97.90
24844;DHT22;12921;51.392;12.240;2022-09-01T15:17:24;22.80;97.90
24844;DHT22;12921;51.392;12.240;2022-09-01T15:19:50;22.80;97.50
24844;DHT22;12921;51.392;12.240;2022-09-01T15:22:16;22.90;98.10
24844;DHT22;12921;51.392;12.240;2022-09-01T15:24:41;23.10;98.80
24844;DHT22;12921;51.392;12.240;2022-09-01T15:27:08;23.10;98.80
24844;DHT22;12921;51.392;12.240;2022-09-01T15:29:35;23.10;98.30
24844;DHT22;12921;51.392;12.240;2022-09-01T15:32:09;22.90;98.40
24844;DHT22;12921;51.392;12.240;2022-09-01T15:34:35;22.90;98.40
24844;DHT22;12921;51.392;12.240;2022-09-01T15:37:01;22.90;97.90
24844;DHT22;12921;51.392;12.240;2022-09-01T15:39:28;22.90;98.40
24844;DHT22;12921;51.392;12.240;2022-09-01T15:41:53;22.80;98.40
24844;DHT22;12921;51.392;12.240;2022-09-01T15:44:20;22.80;98.30
24844;DHT22;12921;51.392;12.240;2022-09-01T15:46:46;22.90;98.60
24844;DHT22;12921;51.392;12.240;2022-09-01T15:49:12;23.10;98.10
24844;DHT22;12921;51.392;12.240;2022-09-01T15:51:40;23.00;97.40
24844;DHT22;12921;51.392;12.240;2022-09-01T15:54:15;22.90;97.80
24844;DHT22;12921;51.392;12.240;2022-09-01T15:56:42;22.80;96.70
24844;DHT22;12921;51.392;12.240;2022-09-01T15:59:08;22.70;97.40
24844;DHT22;12921;51.392;12.240;2022-09-01T16:01:37;22.70;97.40
24844;DHT22;12921;51.392;12.240;2022-09-01T16:04:05;22.80;96.90
24844;DHT22;12921;51.392;12.240;2022-09-01T16:06:31;22.80;97.30
24844;DHT22;12921;51.392;12.240;2022-09-01T16:08:57;22.80;97.70
24844;DHT22;12921;51.392;12.240;2022-09-01T16:11:24;22.70;97.80
24844;DHT22;12921;51.392;12.240;2022-09-01T16:13:50;22.60;97.80
24844;DHT22;12921;51.392;12.240;2022-09-01T16:16:40;22.30;97.90
24844;DHT22;12921;51.392;12.240;2022-09-01T16:19:27;22.10;98.40
24844;DHT22;12921;51.392;12.240;2022-09-01T16:24:48;21.60;99.90
24844;DHT22;12921;51.392;12.240;2022-09-01T16:27:18;21.40;99.90
24844;DHT22;12921;51.392;12.240;2022-09-01T16:32:12;21.30;99.90
24844;DHT22;12921;51.392;12.240;2022-09-01T16:34:43;21.20;99.90
24844;DHT22;12921;51.392;12.240;2022-09-01T16:39:57;21.20;99.90
24844;DHT22;12921;51.392;12.240;2022-09-01T16:43:22;21.10;99.90
24844;DHT22;12921;51.392;12.240;2022-09-01T16:53:35;20.90;99.90
24844;DHT22;12921;51.392;12.240;2022-09-01T16:56:29;20.80;99.90